臺北飛航情報區 - 掃描席(區管/近場)

METAR RCTP 200300Z 02018G29KT 9999 FEW010 BKN020 BKN035 25/20 Q1008 WS ALL RWY NOSIG RMK A2977(L)=

站台狀態:Online
最後更新:2019-09-20 11:00:02